sensor_id;sensor_type;location;lat;lon;timestamp;temperature;humidity
7900;DHT22;3995;50.856;4.404;2023-03-19T00:00:24;15.30;67.50
7900;DHT22;3995;50.856;4.404;2023-03-19T00:02:51;15.30;67.50
7900;DHT22;3995;50.856;4.404;2023-03-19T00:05:18;15.30;67.50
7900;DHT22;3995;50.856;4.404;2023-03-19T00:07:45;15.30;67.60
7900;DHT22;3995;50.856;4.404;2023-03-19T00:10:14;15.30;67.70
7900;DHT22;3995;50.856;4.404;2023-03-19T00:12:41;15.30;67.70
7900;DHT22;3995;50.856;4.404;2023-03-19T00:15:09;15.30;67.80
7900;DHT22;3995;50.856;4.404;2023-03-19T00:17:39;15.30;67.70
7900;DHT22;3995;50.856;4.404;2023-03-19T00:20:08;15.30;67.80
7900;DHT22;3995;50.856;4.404;2023-03-19T00:22:36;15.30;67.90
7900;DHT22;3995;50.856;4.404;2023-03-19T00:25:05;15.30;67.90
7900;DHT22;3995;50.856;4.404;2023-03-19T00:27:34;15.30;67.90
7900;DHT22;3995;50.856;4.404;2023-03-19T00:30:02;15.30;68.00
7900;DHT22;3995;50.856;4.404;2023-03-19T00:32:32;15.30;68.00
7900;DHT22;3995;50.856;4.404;2023-03-19T00:35:00;15.30;68.10
7900;DHT22;3995;50.856;4.404;2023-03-19T00:37:28;15.30;68.10
7900;DHT22;3995;50.856;4.404;2023-03-19T00:39:55;15.30;68.00
7900;DHT22;3995;50.856;4.404;2023-03-19T00:42:23;15.30;68.00
7900;DHT22;3995;50.856;4.404;2023-03-19T00:44:52;15.30;68.00
7900;DHT22;3995;50.856;4.404;2023-03-19T00:47:19;15.30;68.00
7900;DHT22;3995;50.856;4.404;2023-03-19T00:49:47;15.30;68.00
7900;DHT22;3995;50.856;4.404;2023-03-19T00:52:14;15.30;68.10
7900;DHT22;3995;50.856;4.404;2023-03-19T00:54:41;15.30;68.10
7900;DHT22;3995;50.856;4.404;2023-03-19T00:57:09;15.30;68.10
7900;DHT22;3995;50.856;4.404;2023-03-19T00:59:36;15.30;68.20
7900;DHT22;3995;50.856;4.404;2023-03-19T01:02:05;15.30;68.30
7900;DHT22;3995;50.856;4.404;2023-03-19T01:04:32;15.30;68.30
7900;DHT22;3995;50.856;4.404;2023-03-19T01:07:00;15.30;68.30
7900;DHT22;3995;50.856;4.404;2023-03-19T01:09:27;15.20;68.30
7900;DHT22;3995;50.856;4.404;2023-03-19T01:11:54;15.30;68.40
7900;DHT22;3995;50.856;4.404;2023-03-19T01:14:21;15.30;68.40
7900;DHT22;3995;50.856;4.404;2023-03-19T01:16:48;15.20;68.30
7900;DHT22;3995;50.856;4.404;2023-03-19T01:19:17;15.20;68.30
7900;DHT22;3995;50.856;4.404;2023-03-19T01:21:44;15.30;68.40
7900;DHT22;3995;50.856;4.404;2023-03-19T01:24:14;15.20;68.30
7900;DHT22;3995;50.856;4.404;2023-03-19T01:26:41;15.20;68.40
7900;DHT22;3995;50.856;4.404;2023-03-19T01:29:08;15.20;68.40
7900;DHT22;3995;50.856;4.404;2023-03-19T01:31:36;15.20;68.30
7900;DHT22;3995;50.856;4.404;2023-03-19T01:34:04;15.20;68.20
7900;DHT22;3995;50.856;4.404;2023-03-19T01:36:33;15.20;68.20
7900;DHT22;3995;50.856;4.404;2023-03-19T01:39:01;15.20;68.20
7900;DHT22;3995;50.856;4.404;2023-03-19T01:41:28;15.20;68.30
7900;DHT22;3995;50.856;4.404;2023-03-19T01:43:55;15.20;68.40
7900;DHT22;3995;50.856;4.404;2023-03-19T01:46:26;15.20;68.40
7900;DHT22;3995;50.856;4.404;2023-03-19T01:48:55;15.20;68.30
7900;DHT22;3995;50.856;4.404;2023-03-19T01:51:26;15.20;68.20
7900;DHT22;3995;50.856;4.404;2023-03-19T01:53:58;15.20;68.20
7900;DHT22;3995;50.856;4.404;2023-03-19T01:56:29;15.20;68.20
7900;DHT22;3995;50.856;4.404;2023-03-19T01:59:00;15.20;68.10
7900;DHT22;3995;50.856;4.404;2023-03-19T02:01:31;15.20;68.20
7900;DHT22;3995;50.856;4.404;2023-03-19T02:04:00;15.20;68.20
7900;DHT22;3995;50.856;4.404;2023-03-19T02:06:28;15.20;68.30
7900;DHT22;3995;50.856;4.404;2023-03-19T02:08:58;15.20;68.30
7900;DHT22;3995;50.856;4.404;2023-03-19T02:11:25;15.20;68.40
7900;DHT22;3995;50.856;4.404;2023-03-19T02:13:53;15.20;68.40
7900;DHT22;3995;50.856;4.404;2023-03-19T02:16:20;15.20;68.40
7900;DHT22;3995;50.856;4.404;2023-03-19T02:18:47;15.20;68.50
7900;DHT22;3995;50.856;4.404;2023-03-19T02:21:16;15.20;68.60
7900;DHT22;3995;50.856;4.404;2023-03-19T02:23:48;15.10;68.50
7900;DHT22;3995;50.856;4.404;2023-03-19T02:26:23;15.10;68.60
7900;DHT22;3995;50.856;4.404;2023-03-19T02:28:52;15.10;68.80
7900;DHT22;3995;50.856;4.404;2023-03-19T02:31:19;15.10;68.80
7900;DHT22;3995;50.856;4.404;2023-03-19T02:33:57;15.10;68.90
7900;DHT22;3995;50.856;4.404;2023-03-19T02:36:26;15.10;68.80
7900;DHT22;3995;50.856;4.404;2023-03-19T02:38:57;15.10;69.00
7900;DHT22;3995;50.856;4.404;2023-03-19T02:41:27;15.00;68.90
7900;DHT22;3995;50.856;4.404;2023-03-19T02:43:56;15.00;69.10
7900;DHT22;3995;50.856;4.404;2023-03-19T02:46:24;15.00;69.10
7900;DHT22;3995;50.856;4.404;2023-03-19T02:48:51;15.00;69.30
7900;DHT22;3995;50.856;4.404;2023-03-19T02:51:18;15.00;69.30
7900;DHT22;3995;50.856;4.404;2023-03-19T02:53:45;15.00;69.40
7900;DHT22;3995;50.856;4.404;2023-03-19T02:56:13;15.00;69.40
7900;DHT22;3995;50.856;4.404;2023-03-19T02:58:41;15.00;69.50
7900;DHT22;3995;50.856;4.404;2023-03-19T03:01:08;15.00;69.50
7900;DHT22;3995;50.856;4.404;2023-03-19T03:03:35;15.00;69.50
7900;DHT22;3995;50.856;4.404;2023-03-19T03:06:04;14.90;69.50
7900;DHT22;3995;50.856;4.404;2023-03-19T03:08:31;14.90;69.60
7900;DHT22;3995;50.856;4.404;2023-03-19T03:10:59;14.90;69.60
7900;DHT22;3995;50.856;4.404;2023-03-19T03:13:26;14.90;69.60
7900;DHT22;3995;50.856;4.404;2023-03-19T03:15:55;14.90;69.60
7900;DHT22;3995;50.856;4.404;2023-03-19T03:18:23;14.90;69.60
7900;DHT22;3995;50.856;4.404;2023-03-19T03:20:51;14.90;69.60
7900;DHT22;3995;50.856;4.404;2023-03-19T03:23:18;14.90;69.60
7900;DHT22;3995;50.856;4.404;2023-03-19T03:25:48;14.90;69.70
7900;DHT22;3995;50.856;4.404;2023-03-19T03:28:15;14.90;69.70
7900;DHT22;3995;50.856;4.404;2023-03-19T03:30:43;14.80;69.60
7900;DHT22;3995;50.856;4.404;2023-03-19T03:33:12;14.90;69.60
7900;DHT22;3995;50.856;4.404;2023-03-19T03:35:40;14.90;69.60
7900;DHT22;3995;50.856;4.404;2023-03-19T03:38:07;14.80;69.50
7900;DHT22;3995;50.856;4.404;2023-03-19T03:40:36;14.80;69.50
7900;DHT22;3995;50.856;4.404;2023-03-19T03:43:03;14.80;69.50
7900;DHT22;3995;50.856;4.404;2023-03-19T03:45:31;14.80;69.50
7900;DHT22;3995;50.856;4.404;2023-03-19T03:47:58;14.80;69.50
7900;DHT22;3995;50.856;4.404;2023-03-19T03:50:27;14.80;69.30
7900;DHT22;3995;50.856;4.404;2023-03-19T03:52:54;14.80;69.10
7900;DHT22;3995;50.856;4.404;2023-03-19T03:55:21;14.80;68.90
7900;DHT22;3995;50.856;4.404;2023-03-19T03:57:49;14.70;68.80
7900;DHT22;3995;50.856;4.404;2023-03-19T04:00:17;14.70;68.80
7900;DHT22;3995;50.856;4.404;2023-03-19T04:02:44;14.70;68.70
7900;DHT22;3995;50.856;4.404;2023-03-19T04:05:11;14.70;68.80
7900;DHT22;3995;50.856;4.404;2023-03-19T04:07:40;14.70;68.60
7900;DHT22;3995;50.856;4.404;2023-03-19T04:10:08;14.70;68.40
7900;DHT22;3995;50.856;4.404;2023-03-19T04:12:37;14.70;68.40
7900;DHT22;3995;50.856;4.404;2023-03-19T04:15:05;14.70;68.40
7900;DHT22;3995;50.856;4.404;2023-03-19T04:17:32;14.70;68.30
7900;DHT22;3995;50.856;4.404;2023-03-19T04:20:00;14.70;68.20
7900;DHT22;3995;50.856;4.404;2023-03-19T04:22:29;14.60;67.90
7900;DHT22;3995;50.856;4.404;2023-03-19T04:24:59;14.70;68.00
7900;DHT22;3995;50.856;4.404;2023-03-19T04:27:26;14.60;67.80
7900;DHT22;3995;50.856;4.404;2023-03-19T04:29:54;14.60;67.70
7900;DHT22;3995;50.856;4.404;2023-03-19T04:32:21;14.60;67.60
7900;DHT22;3995;50.856;4.404;2023-03-19T04:34:49;14.60;67.60
7900;DHT22;3995;50.856;4.404;2023-03-19T04:37:18;14.60;67.60
7900;DHT22;3995;50.856;4.404;2023-03-19T04:39:45;14.60;67.60
7900;DHT22;3995;50.856;4.404;2023-03-19T04:42:13;14.60;67.70
7900;DHT22;3995;50.856;4.404;2023-03-19T04:44:41;14.60;67.70
7900;DHT22;3995;50.856;4.404;2023-03-19T04:47:08;14.50;67.60
7900;DHT22;3995;50.856;4.404;2023-03-19T04:49:35;14.50;67.70
7900;DHT22;3995;50.856;4.404;2023-03-19T04:52:03;14.50;67.80
7900;DHT22;3995;50.856;4.404;2023-03-19T04:54:30;14.50;67.90
7900;DHT22;3995;50.856;4.404;2023-03-19T04:56:58;14.50;67.90
7900;DHT22;3995;50.856;4.404;2023-03-19T04:59:28;14.50;67.90
7900;DHT22;3995;50.856;4.404;2023-03-19T05:01:55;14.50;67.90
7900;DHT22;3995;50.856;4.404;2023-03-19T05:04:23;14.50;67.80
7900;DHT22;3995;50.856;4.404;2023-03-19T05:06:51;14.50;67.80
7900;DHT22;3995;50.856;4.404;2023-03-19T05:09:18;14.50;67.70
7900;DHT22;3995;50.856;4.404;2023-03-19T05:11:46;14.50;67.70
7900;DHT22;3995;50.856;4.404;2023-03-19T05:14:13;14.50;67.60
7900;DHT22;3995;50.856;4.404;2023-03-19T05:16:42;14.50;67.60
7900;DHT22;3995;50.856;4.404;2023-03-19T05:19:09;14.50;67.50
7900;DHT22;3995;50.856;4.404;2023-03-19T05:21:37;14.50;67.40
7900;DHT22;3995;50.856;4.404;2023-03-19T05:24:05;14.50;67.30
7900;DHT22;3995;50.856;4.404;2023-03-19T05:26:32;14.50;67.30
7900;DHT22;3995;50.856;4.404;2023-03-19T05:28:59;14.50;67.20
7900;DHT22;3995;50.856;4.404;2023-03-19T05:31:26;14.40;67.20
7900;DHT22;3995;50.856;4.404;2023-03-19T05:33:55;14.50;67.20
7900;DHT22;3995;50.856;4.404;2023-03-19T05:36:23;14.50;67.10
7900;DHT22;3995;50.856;4.404;2023-03-19T05:38:50;14.40;67.00
7900;DHT22;3995;50.856;4.404;2023-03-19T05:41:17;14.40;66.90
7900;DHT22;3995;50.856;4.404;2023-03-19T05:43:44;14.40;66.90
7900;DHT22;3995;50.856;4.404;2023-03-19T05:46:11;14.40;66.80
7900;DHT22;3995;50.856;4.404;2023-03-19T05:48:38;14.40;66.70
7900;DHT22;3995;50.856;4.404;2023-03-19T05:51:08;14.40;66.70
7900;DHT22;3995;50.856;4.404;2023-03-19T05:53:36;14.40;66.70
7900;DHT22;3995;50.856;4.404;2023-03-19T05:56:03;14.40;66.60
7900;DHT22;3995;50.856;4.404;2023-03-19T05:58:31;14.40;66.60
7900;DHT22;3995;50.856;4.404;2023-03-19T06:00:58;14.40;66.60
7900;DHT22;3995;50.856;4.404;2023-03-19T06:03:26;14.50;66.80
7900;DHT22;3995;50.856;4.404;2023-03-19T06:05:54;14.40;66.50
7900;DHT22;3995;50.856;4.404;2023-03-19T06:08:24;14.40;66.30
7900;DHT22;3995;50.856;4.404;2023-03-19T06:10:52;14.40;66.20
7900;DHT22;3995;50.856;4.404;2023-03-19T06:13:19;14.50;66.20
7900;DHT22;3995;50.856;4.404;2023-03-19T06:15:47;14.50;66.20
7900;DHT22;3995;50.856;4.404;2023-03-19T06:18:15;14.40;66.00
7900;DHT22;3995;50.856;4.404;2023-03-19T06:20:42;14.40;66.00
7900;DHT22;3995;50.856;4.404;2023-03-19T06:23:10;14.30;65.80
7900;DHT22;3995;50.856;4.404;2023-03-19T06:25:38;14.40;65.80
7900;DHT22;3995;50.856;4.404;2023-03-19T06:28:06;14.40;65.80
7900;DHT22;3995;50.856;4.404;2023-03-19T06:30:33;14.40;65.80
7900;DHT22;3995;50.856;4.404;2023-03-19T06:33:00;14.40;65.80
7900;DHT22;3995;50.856;4.404;2023-03-19T06:35:27;14.40;65.90
7900;DHT22;3995;50.856;4.404;2023-03-19T06:37:54;14.40;65.80
7900;DHT22;3995;50.856;4.404;2023-03-19T06:40:22;14.40;65.80
7900;DHT22;3995;50.856;4.404;2023-03-19T06:42:51;14.40;65.70
7900;DHT22;3995;50.856;4.404;2023-03-19T06:45:18;14.40;65.60
7900;DHT22;3995;50.856;4.404;2023-03-19T06:47:46;14.30;65.60
7900;DHT22;3995;50.856;4.404;2023-03-19T06:50:14;14.30;65.70
7900;DHT22;3995;50.856;4.404;2023-03-19T06:52:42;14.30;65.70
7900;DHT22;3995;50.856;4.404;2023-03-19T06:55:10;14.30;65.70
7900;DHT22;3995;50.856;4.404;2023-03-19T06:57:37;14.30;65.70
7900;DHT22;3995;50.856;4.404;2023-03-19T07:00:08;14.30;65.60
7900;DHT22;3995;50.856;4.404;2023-03-19T07:02:36;14.30;65.60
7900;DHT22;3995;50.856;4.404;2023-03-19T07:05:04;14.30;65.60
7900;DHT22;3995;50.856;4.404;2023-03-19T07:07:31;14.20;65.40
7900;DHT22;3995;50.856;4.404;2023-03-19T07:09:58;14.20;65.20
7900;DHT22;3995;50.856;4.404;2023-03-19T07:12:25;14.20;65.90
7900;DHT22;3995;50.856;4.404;2023-03-19T07:14:53;14.30;65.40
7900;DHT22;3995;50.856;4.404;2023-03-19T07:17:22;14.30;65.30
7900;DHT22;3995;50.856;4.404;2023-03-19T07:19:49;14.20;65.20
7900;DHT22;3995;50.856;4.404;2023-03-19T07:22:17;14.20;65.00
7900;DHT22;3995;50.856;4.404;2023-03-19T07:24:44;14.20;65.00
7900;DHT22;3995;50.856;4.404;2023-03-19T07:27:12;14.20;65.00
7900;DHT22;3995;50.856;4.404;2023-03-19T07:29:39;14.20;65.20
7900;DHT22;3995;50.856;4.404;2023-03-19T07:32:08;14.20;65.20
7900;DHT22;3995;50.856;4.404;2023-03-19T07:34:37;14.20;65.20
7900;DHT22;3995;50.856;4.404;2023-03-19T07:37:04;14.20;65.10
7900;DHT22;3995;50.856;4.404;2023-03-19T07:39:32;14.20;65.20
7900;DHT22;3995;50.856;4.404;2023-03-19T07:41:59;14.20;65.20
7900;DHT22;3995;50.856;4.404;2023-03-19T07:44:26;14.20;65.10
7900;DHT22;3995;50.856;4.404;2023-03-19T07:46:54;14.20;65.90
7900;DHT22;3995;50.856;4.404;2023-03-19T07:49:21;14.20;65.20
7900;DHT22;3995;50.856;4.404;2023-03-19T07:51:50;14.20;65.20
7900;DHT22;3995;50.856;4.404;2023-03-19T07:54:17;14.20;65.20
7900;DHT22;3995;50.856;4.404;2023-03-19T07:56:45;14.20;65.30
7900;DHT22;3995;50.856;4.404;2023-03-19T07:59:12;14.20;65.20
7900;DHT22;3995;50.856;4.404;2023-03-19T08:01:39;14.30;65.20
7900;DHT22;3995;50.856;4.404;2023-03-19T08:04:06;14.20;65.10
7900;DHT22;3995;50.856;4.404;2023-03-19T08:06:33;14.30;65.20
7900;DHT22;3995;50.856;4.404;2023-03-19T08:09:02;14.30;65.20
7900;DHT22;3995;50.856;4.404;2023-03-19T08:11:29;14.30;65.10
7900;DHT22;3995;50.856;4.404;2023-03-19T08:13:57;14.30;65.10
7900;DHT22;3995;50.856;4.404;2023-03-19T08:16:24;14.30;64.90
7900;DHT22;3995;50.856;4.404;2023-03-19T08:18:52;14.30;64.70
7900;DHT22;3995;50.856;4.404;2023-03-19T08:21:19;14.30;64.60
7900;DHT22;3995;50.856;4.404;2023-03-19T08:23:47;14.30;64.50
7900;DHT22;3995;50.856;4.404;2023-03-19T08:26:15;14.30;64.50
7900;DHT22;3995;50.856;4.404;2023-03-19T08:28:42;14.30;64.50
7900;DHT22;3995;50.856;4.404;2023-03-19T08:31:12;14.30;64.50
7900;DHT22;3995;50.856;4.404;2023-03-19T08:33:40;14.30;64.60
7900;DHT22;3995;50.856;4.404;2023-03-19T08:36:08;14.30;64.40
7900;DHT22;3995;50.856;4.404;2023-03-19T08:38:36;14.40;64.30
7900;DHT22;3995;50.856;4.404;2023-03-19T08:41:03;14.40;64.20
7900;DHT22;3995;50.856;4.404;2023-03-19T08:43:34;14.40;64.20
7900;DHT22;3995;50.856;4.404;2023-03-19T08:46:01;14.40;64.10
7900;DHT22;3995;50.856;4.404;2023-03-19T08:48:29;14.40;64.10
7900;DHT22;3995;50.856;4.404;2023-03-19T08:50:58;14.40;64.00
7900;DHT22;3995;50.856;4.404;2023-03-19T08:53:25;14.40;64.00
7900;DHT22;3995;50.856;4.404;2023-03-19T08:55:54;14.40;63.90
7900;DHT22;3995;50.856;4.404;2023-03-19T08:58:21;14.40;63.90
7900;DHT22;3995;50.856;4.404;2023-03-19T09:00:51;14.40;64.00
7900;DHT22;3995;50.856;4.404;2023-03-19T09:03:22;14.40;63.80
7900;DHT22;3995;50.856;4.404;2023-03-19T09:05:51;14.40;63.80
7900;DHT22;3995;50.856;4.404;2023-03-19T09:08:18;14.40;63.90
7900;DHT22;3995;50.856;4.404;2023-03-19T09:10:45;14.50;64.10
7900;DHT22;3995;50.856;4.404;2023-03-19T09:13:16;14.50;64.10
7900;DHT22;3995;50.856;4.404;2023-03-19T09:15:43;14.60;64.20
7900;DHT22;3995;50.856;4.404;2023-03-19T09:18:12;14.60;64.20
7900;DHT22;3995;50.856;4.404;2023-03-19T09:20:40;14.70;64.10
7900;DHT22;3995;50.856;4.404;2023-03-19T09:23:08;14.70;63.90
7900;DHT22;3995;50.856;4.404;2023-03-19T09:25:35;14.70;63.90
7900;DHT22;3995;50.856;4.404;2023-03-19T09:28:03;14.70;64.10
7900;DHT22;3995;50.856;4.404;2023-03-19T09:30:30;14.70;64.10
7900;DHT22;3995;50.856;4.404;2023-03-19T09:32:58;14.70;64.00
7900;DHT22;3995;50.856;4.404;2023-03-19T09:35:27;14.80;64.00
7900;DHT22;3995;50.856;4.404;2023-03-19T09:37:55;14.80;64.00
7900;DHT22;3995;50.856;4.404;2023-03-19T09:40:26;14.80;64.00
7900;DHT22;3995;50.856;4.404;2023-03-19T09:43:02;14.80;63.90
7900;DHT22;3995;50.856;4.404;2023-03-19T09:45:32;14.90;64.10
7900;DHT22;3995;50.856;4.404;2023-03-19T09:48:01;14.80;64.00
7900;DHT22;3995;50.856;4.404;2023-03-19T09:50:32;14.90;63.90
7900;DHT22;3995;50.856;4.404;2023-03-19T09:53:22;14.90;63.80
7900;DHT22;3995;50.856;4.404;2023-03-19T09:55:59;14.90;63.90
7900;DHT22;3995;50.856;4.404;2023-03-19T09:58:31;14.90;63.90
7900;DHT22;3995;50.856;4.404;2023-03-19T10:01:00;15.00;64.20
7900;DHT22;3995;50.856;4.404;2023-03-19T10:03:44;15.00;64.30
7900;DHT22;3995;50.856;4.404;2023-03-19T10:06:30;15.10;63.90
7900;DHT22;3995;50.856;4.404;2023-03-19T10:09:24;15.10;63.90
7900;DHT22;3995;50.856;4.404;2023-03-19T10:12:04;15.10;63.70
7900;DHT22;3995;50.856;4.404;2023-03-19T10:17:39;15.20;63.70
7900;DHT22;3995;50.856;4.404;2023-03-19T10:20:12;15.20;63.80
7900;DHT22;3995;50.856;4.404;2023-03-19T10:22:44;15.20;63.80
7900;DHT22;3995;50.856;4.404;2023-03-19T10:25:18;15.20;63.80
7900;DHT22;3995;50.856;4.404;2023-03-19T10:27:52;15.30;63.70
7900;DHT22;3995;50.856;4.404;2023-03-19T10:30:22;15.30;63.60
7900;DHT22;3995;50.856;4.404;2023-03-19T10:32:57;15.40;63.50
7900;DHT22;3995;50.856;4.404;2023-03-19T10:35:35;15.50;63.20
7900;DHT22;3995;50.856;4.404;2023-03-19T10:38:16;15.50;63.00
7900;DHT22;3995;50.856;4.404;2023-03-19T10:40:56;15.50;62.80
7900;DHT22;3995;50.856;4.404;2023-03-19T10:43:29;15.50;63.00
7900;DHT22;3995;50.856;4.404;2023-03-19T10:45:59;15.50;63.10
7900;DHT22;3995;50.856;4.404;2023-03-19T10:48:26;15.60;62.90
7900;DHT22;3995;50.856;4.404;2023-03-19T10:50:57;15.50;62.60
7900;DHT22;3995;50.856;4.404;2023-03-19T10:53:30;15.60;62.70
7900;DHT22;3995;50.856;4.404;2023-03-19T10:56:01;15.60;62.80
7900;DHT22;3995;50.856;4.404;2023-03-19T10:58:31;15.60;62.80
7900;DHT22;3995;50.856;4.404;2023-03-19T11:01:04;15.60;63.00
7900;DHT22;3995;50.856;4.404;2023-03-19T11:03:34;15.60;62.90
7900;DHT22;3995;50.856;4.404;2023-03-19T11:06:05;15.60;62.90
7900;DHT22;3995;50.856;4.404;2023-03-19T11:08:35;15.60;62.80
7900;DHT22;3995;50.856;4.404;2023-03-19T11:11:03;15.50;62.60
7900;DHT22;3995;50.856;4.404;2023-03-19T11:13:33;15.50;62.80
7900;DHT22;3995;50.856;4.404;2023-03-19T11:16:02;15.60;62.90
7900;DHT22;3995;50.856;4.404;2023-03-19T11:18:35;15.50;62.90
7900;DHT22;3995;50.856;4.404;2023-03-19T11:21:06;15.50;63.60
7900;DHT22;3995;50.856;4.404;2023-03-19T11:23:39;15.50;63.10
7900;DHT22;3995;50.856;4.404;2023-03-19T11:26:07;15.50;63.30
7900;DHT22;3995;50.856;4.404;2023-03-19T11:28:36;15.50;63.60
7900;DHT22;3995;50.856;4.404;2023-03-19T11:31:13;15.40;63.60
7900;DHT22;3995;50.856;4.404;2023-03-19T11:33:56;15.40;63.60
7900;DHT22;3995;50.856;4.404;2023-03-19T11:36:30;15.40;63.70
7900;DHT22;3995;50.856;4.404;2023-03-19T11:39:20;15.30;63.80
7900;DHT22;3995;50.856;4.404;2023-03-19T11:42:02;15.40;63.90
7900;DHT22;3995;50.856;4.404;2023-03-19T11:44:40;15.30;64.00
7900;DHT22;3995;50.856;4.404;2023-03-19T11:47:18;15.30;64.00
7900;DHT22;3995;50.856;4.404;2023-03-19T11:50:12;15.30;63.90
7900;DHT22;3995;50.856;4.404;2023-03-19T11:52:56;15.40;63.90
7900;DHT22;3995;50.856;4.404;2023-03-19T11:55:32;15.30;64.00
7900;DHT22;3995;50.856;4.404;2023-03-19T11:58:20;15.40;64.10
7900;DHT22;3995;50.856;4.404;2023-03-19T12:00:51;15.40;63.90
7900;DHT22;3995;50.856;4.404;2023-03-19T12:03:35;15.50;64.00
7900;DHT22;3995;50.856;4.404;2023-03-19T12:06:16;15.60;63.80
7900;DHT22;3995;50.856;4.404;2023-03-19T12:08:49;15.50;63.60
7900;DHT22;3995;50.856;4.404;2023-03-19T12:11:23;15.50;63.50
7900;DHT22;3995;50.856;4.404;2023-03-19T12:14:09;15.60;63.60
7900;DHT22;3995;50.856;4.404;2023-03-19T12:16:55;15.60;63.70
7900;DHT22;3995;50.856;4.404;2023-03-19T12:22:45;15.60;63.60
7900;DHT22;3995;50.856;4.404;2023-03-19T12:25:31;15.60;63.80
7900;DHT22;3995;50.856;4.404;2023-03-19T12:28:09;15.70;63.40
7900;DHT22;3995;50.856;4.404;2023-03-19T12:30:59;15.60;63.30
7900;DHT22;3995;50.856;4.404;2023-03-19T12:33:41;15.60;63.30
7900;DHT22;3995;50.856;4.404;2023-03-19T12:36:14;15.50;63.40
7900;DHT22;3995;50.856;4.404;2023-03-19T12:38:44;15.50;63.60
7900;DHT22;3995;50.856;4.404;2023-03-19T12:41:18;15.50;63.80
7900;DHT22;3995;50.856;4.404;2023-03-19T12:43:53;15.50;64.00
7900;DHT22;3995;50.856;4.404;2023-03-19T12:46:26;15.50;64.10
7900;DHT22;3995;50.856;4.404;2023-03-19T12:48:58;15.50;64.20
7900;DHT22;3995;50.856;4.404;2023-03-19T12:51:30;15.60;64.10
7900;DHT22;3995;50.856;4.404;2023-03-19T12:54:01;15.60;63.90
7900;DHT22;3995;50.856;4.404;2023-03-19T12:56:35;15.70;63.70
7900;DHT22;3995;50.856;4.404;2023-03-19T12:59:10;15.70;63.40
7900;DHT22;3995;50.856;4.404;2023-03-19T13:01:42;15.70;63.20
7900;DHT22;3995;50.856;4.404;2023-03-19T13:04:13;15.70;63.40
7900;DHT22;3995;50.856;4.404;2023-03-19T13:06:51;15.70;63.40
7900;DHT22;3995;50.856;4.404;2023-03-19T13:09:27;15.70;63.20
7900;DHT22;3995;50.856;4.404;2023-03-19T13:11:58;15.80;63.10
7900;DHT22;3995;50.856;4.404;2023-03-19T13:14:33;15.80;63.00
7900;DHT22;3995;50.856;4.404;2023-03-19T13:17:08;15.80;62.70
7900;DHT22;3995;50.856;4.404;2023-03-19T13:19:43;15.80;62.50
7900;DHT22;3995;50.856;4.404;2023-03-19T13:22:16;15.80;62.50
7900;DHT22;3995;50.856;4.404;2023-03-19T13:24:46;15.80;62.50
7900;DHT22;3995;50.856;4.404;2023-03-19T13:27:19;15.80;62.40
7900;DHT22;3995;50.856;4.404;2023-03-19T13:30:10;15.80;62.50
7900;DHT22;3995;50.856;4.404;2023-03-19T13:32:47;15.80;62.60
7900;DHT22;3995;50.856;4.404;2023-03-19T13:35:30;15.70;62.60
7900;DHT22;3995;50.856;4.404;2023-03-19T13:38:03;15.70;62.40
7900;DHT22;3995;50.856;4.404;2023-03-19T13:40:41;15.60;62.60
7900;DHT22;3995;50.856;4.404;2023-03-19T13:43:45;15.60;63.30
7900;DHT22;3995;50.856;4.404;2023-03-19T13:46:39;15.60;62.50
7900;DHT22;3995;50.856;4.404;2023-03-19T13:49:28;15.60;62.70
7900;DHT22;3995;50.856;4.404;2023-03-19T13:52:02;15.60;62.70
7900;DHT22;3995;50.856;4.404;2023-03-19T13:54:35;15.60;62.90
7900;DHT22;3995;50.856;4.404;2023-03-19T14:03:19;15.60;62.70
7900;DHT22;3995;50.856;4.404;2023-03-19T14:05:47;15.60;62.60
7900;DHT22;3995;50.856;4.404;2023-03-19T14:08:20;15.50;62.40
7900;DHT22;3995;50.856;4.404;2023-03-19T14:10:52;15.60;62.30
7900;DHT22;3995;50.856;4.404;2023-03-19T14:13:28;15.60;61.90
7900;DHT22;3995;50.856;4.404;2023-03-19T14:16:06;15.60;61.70
7900;DHT22;3995;50.856;4.404;2023-03-19T14:18:38;15.60;61.60
7900;DHT22;3995;50.856;4.404;2023-03-19T14:21:30;15.60;61.30
7900;DHT22;3995;50.856;4.404;2023-03-19T14:24:38;15.60;61.10
7900;DHT22;3995;50.856;4.404;2023-03-19T14:27:24;15.60;60.90
7900;DHT22;3995;50.856;4.404;2023-03-19T14:29:54;15.50;61.00
7900;DHT22;3995;50.856;4.404;2023-03-19T14:32:27;15.60;61.20
7900;DHT22;3995;50.856;4.404;2023-03-19T14:35:02;15.60;61.20
7900;DHT22;3995;50.856;4.404;2023-03-19T14:37:37;15.60;61.10
7900;DHT22;3995;50.856;4.404;2023-03-19T14:40:11;15.60;61.10
7900;DHT22;3995;50.856;4.404;2023-03-19T14:42:50;15.50;60.80
7900;DHT22;3995;50.856;4.404;2023-03-19T14:45:41;15.50;60.90
7900;DHT22;3995;50.856;4.404;2023-03-19T14:48:44;15.50;60.70
7900;DHT22;3995;50.856;4.404;2023-03-19T14:54:32;15.40;60.80
7900;DHT22;3995;50.856;4.404;2023-03-19T14:57:06;15.40;60.90
7900;DHT22;3995;50.856;4.404;2023-03-19T14:59:37;15.40;60.80
7900;DHT22;3995;50.856;4.404;2023-03-19T15:02:12;15.40;60.90
7900;DHT22;3995;50.856;4.404;2023-03-19T15:04:44;15.40;60.80
7900;DHT22;3995;50.856;4.404;2023-03-19T15:07:17;15.40;60.60
7900;DHT22;3995;50.856;4.404;2023-03-19T15:09:50;15.40;60.40
7900;DHT22;3995;50.856;4.404;2023-03-19T15:15:22;15.40;60.20
7900;DHT22;3995;50.856;4.404;2023-03-19T15:17:56;15.40;60.30
7900;DHT22;3995;50.856;4.404;2023-03-19T15:20:25;15.30;60.30
7900;DHT22;3995;50.856;4.404;2023-03-19T15:22:56;15.30;60.30
7900;DHT22;3995;50.856;4.404;2023-03-19T15:25:27;15.30;60.20
7900;DHT22;3995;50.856;4.404;2023-03-19T15:28:06;15.30;60.30
7900;DHT22;3995;50.856;4.404;2023-03-19T15:30:34;15.30;60.20
7900;DHT22;3995;50.856;4.404;2023-03-19T15:33:02;15.20;60.30
7900;DHT22;3995;50.856;4.404;2023-03-19T15:35:32;15.20;60.30
7900;DHT22;3995;50.856;4.404;2023-03-19T15:38:02;15.20;60.00
7900;DHT22;3995;50.856;4.404;2023-03-19T15:40:34;15.20;59.80
7900;DHT22;3995;50.856;4.404;2023-03-19T15:43:02;15.20;59.80
7900;DHT22;3995;50.856;4.404;2023-03-19T15:45:32;15.10;59.60
7900;DHT22;3995;50.856;4.404;2023-03-19T15:48:03;15.10;59.70
7900;DHT22;3995;50.856;4.404;2023-03-19T15:50:36;15.10;59.70
7900;DHT22;3995;50.856;4.404;2023-03-19T15:53:09;15.10;59.80
7900;DHT22;3995;50.856;4.404;2023-03-19T15:55:39;15.10;59.70
7900;DHT22;3995;50.856;4.404;2023-03-19T15:58:09;15.10;59.70
7900;DHT22;3995;50.856;4.404;2023-03-19T16:00:38;15.10;59.80
7900;DHT22;3995;50.856;4.404;2023-03-19T16:03:07;15.00;59.60
7900;DHT22;3995;50.856;4.404;2023-03-19T16:05:37;15.00;59.70
7900;DHT22;3995;50.856;4.404;2023-03-19T16:08:15;15.00;59.80
7900;DHT22;3995;50.856;4.404;2023-03-19T16:10:44;15.00;59.70
7900;DHT22;3995;50.856;4.404;2023-03-19T16:13:26;15.00;59.80
7900;DHT22;3995;50.856;4.404;2023-03-19T16:15:59;15.00;59.90
7900;DHT22;3995;50.856;4.404;2023-03-19T16:18:28;14.90;59.90
7900;DHT22;3995;50.856;4.404;2023-03-19T16:21:02;15.00;59.80
7900;DHT22;3995;50.856;4.404;2023-03-19T16:23:33;15.00;59.70
7900;DHT22;3995;50.856;4.404;2023-03-19T16:26:18;14.90;59.70
7900;DHT22;3995;50.856;4.404;2023-03-19T16:28:53;15.00;59.60
7900;DHT22;3995;50.856;4.404;2023-03-19T16:31:24;14.90;59.60
7900;DHT22;3995;50.856;4.404;2023-03-19T16:33:53;14.80;59.50
7900;DHT22;3995;50.856;4.404;2023-03-19T16:36:22;14.80;59.60
7900;DHT22;3995;50.856;4.404;2023-03-19T16:39:06;14.80;59.50
7900;DHT22;3995;50.856;4.404;2023-03-19T16:41:40;14.80;59.40
7900;DHT22;3995;50.856;4.404;2023-03-19T16:44:12;14.70;59.40